createdAt,value
2023-10-20T00:00:58.901Z,95552.13
2023-10-20T00:04:00.437Z,95547.63
2023-10-20T00:07:03.738Z,95550.66
2023-10-20T00:10:06.384Z,95546.34
2023-10-20T00:13:07.820Z,95523.66
2023-10-20T00:16:09.279Z,95525.22
2023-10-20T00:19:10.836Z,95532.41
2023-10-20T00:22:12.318Z,95536.59
2023-10-20T00:25:13.695Z,95523.88
2023-10-20T00:28:15.142Z,95518.09
2023-10-20T00:31:18.214Z,95521.09
2023-10-20T00:34:19.748Z,95524.22
2023-10-20T00:37:21.543Z,95517.44
2023-10-20T00:40:22.955Z,95518.41
2023-10-20T00:43:34.382Z,95505.53
2023-10-20T00:46:35.784Z,95508.50
2023-10-20T00:49:38.251Z,95503.97
2023-10-20T00:52:49.648Z,95502.19
2023-10-20T00:55:51.392Z,95504.41
2023-10-20T00:58:52.779Z,95492.44
2023-10-20T01:01:55.421Z,95471.34
2023-10-20T01:04:56.911Z,95466.00
2023-10-20T01:07:58.448Z,95446.47
2023-10-20T01:10:59.976Z,95428.97
2023-10-20T01:14:02.159Z,95415.66
2023-10-20T01:17:04.409Z,95418.09
2023-10-20T01:20:07.345Z,95423.88
2023-10-20T01:23:09.044Z,95415.19
2023-10-20T01:26:10.481Z,95410.78
2023-10-20T01:29:13.473Z,95399.66
2023-10-20T01:32:15.076Z,95384.06
2023-10-20T01:35:16.552Z,95381.38
2023-10-20T01:38:18.530Z,95364.03
2023-10-20T01:41:20.786Z,95365.38
2023-10-20T01:44:22.485Z,95353.34
2023-10-20T01:47:24.103Z,95335.81
2023-10-20T01:50:25.825Z,95341.25
2023-10-20T01:53:27.401Z,95330.75
2023-10-20T01:56:28.892Z,95320.47
2023-10-20T01:59:30.306Z,95304.72
2023-10-20T02:02:31.854Z,95291.84
2023-10-20T02:05:33.378Z,95290.69
2023-10-20T02:08:35.931Z,95288.06
2023-10-20T02:11:37.723Z,95286.06
2023-10-20T02:14:39.216Z,95288.06
2023-10-20T02:17:40.783Z,95282.38
2023-10-20T02:20:42.350Z,95281.34
2023-10-20T02:23:43.792Z,95289.84
2023-10-20T02:26:47.012Z,95288.06
2023-10-20T02:29:48.451Z,95283.34
2023-10-20T02:32:49.953Z,95282.84
2023-10-20T02:35:51.460Z,95274.13
2023-10-20T02:38:53.347Z,95255.75
2023-10-20T02:41:55.227Z,95244.63
2023-10-20T02:44:56.619Z,95225.19
2023-10-20T02:47:58.836Z,95212.41
2023-10-20T02:51:10.296Z,95202.47
2023-10-20T02:54:11.713Z,95175.16
2023-10-20T02:57:13.107Z,95160.25
2023-10-20T03:00:19.383Z,95139.38
2023-10-20T03:03:20.976Z,95127.09
2023-10-20T03:06:23.749Z,95101.28
2023-10-20T03:09:25.354Z,95088.22
2023-10-20T03:12:26.804Z,95067.38
2023-10-20T03:15:28.227Z,95051.50
2023-10-20T03:18:29.766Z,95035.41
2023-10-20T03:21:31.676Z,95027.28
2023-10-20T03:24:34.275Z,95015.00
2023-10-20T03:27:36.802Z,95009.25
2023-10-20T03:30:39.627Z,95025.47
2023-10-20T03:33:41.797Z,95032.88
2023-10-20T03:36:43.200Z,95033.97
2023-10-20T03:39:44.802Z,95033.00
2023-10-20T03:42:46.705Z,95022.50
2023-10-20T03:45:53.179Z,95007.50
2023-10-20T03:48:54.774Z,95003.22
2023-10-20T03:51:56.218Z,95002.03
2023-10-20T03:54:57.647Z,94997.84
2023-10-20T03:57:59.053Z,94992.59
2023-10-20T04:01:03.071Z,94994.25
2023-10-20T04:04:05.476Z,94978.09
2023-10-20T04:07:08.227Z,94976.03
2023-10-20T04:10:09.667Z,94972.91
2023-10-20T04:13:11.349Z,94955.03
2023-10-20T04:16:13.896Z,94946.31
2023-10-20T04:19:16.023Z,94924.63
2023-10-20T04:22:17.500Z,94899.22
2023-10-20T04:25:19.371Z,94870.94
2023-10-20T04:28:34.022Z,94866.06
2023-10-20T04:31:54.164Z,94843.53
2023-10-20T04:35:14.088Z,94834.19
2023-10-20T04:38:34.090Z,94824.09
2023-10-20T04:41:54.268Z,94801.06
2023-10-20T04:45:18.248Z,94785.09
2023-10-20T04:48:22.720Z,94764.97
2023-10-20T04:51:44.109Z,94752.69
2023-10-20T04:54:52.522Z,94754.47
2023-10-20T04:57:54.558Z,94763.97
2023-10-20T05:01:05.176Z,94739.78
2023-10-20T05:04:29.475Z,94717.84
2023-10-20T05:07:31.280Z,94718.88
2023-10-20T05:10:32.858Z,94730.03
2023-10-20T05:13:34.756Z,94726.06
2023-10-20T05:16:36.218Z,94718.56
2023-10-20T05:19:37.716Z,94706.56
2023-10-20T05:22:39.140Z,94732.22
2023-10-20T05:25:47.841Z,94735.88
2023-10-20T05:28:49.224Z,94724.00
2023-10-20T05:31:50.667Z,94714.19
2023-10-20T05:34:55.660Z,94736.13
2023-10-20T05:37:57.029Z,94737.34
2023-10-20T05:41:01.040Z,94751.66
2023-10-20T05:44:03.096Z,94738.25
2023-10-20T05:47:05.359Z,94704.06
2023-10-20T05:50:07.508Z,94692.41
2023-10-20T05:53:09.126Z,94678.09
2023-10-20T05:56:11.617Z,94694.47
2023-10-20T05:59:13.222Z,94687.94
2023-10-20T06:02:14.690Z,94686.44
2023-10-20T06:05:16.243Z,94707.84
2023-10-20T06:08:18.170Z,94697.25
2023-10-20T06:11:19.701Z,94721.16
2023-10-20T06:14:21.547Z,94709.69
2023-10-20T06:17:23.012Z,94712.91
2023-10-20T06:20:24.446Z,94736.09
2023-10-20T06:23:25.942Z,94738.31
2023-10-20T06:26:27.425Z,94718.63
2023-10-20T06:29:39.237Z,94713.22
2023-10-20T06:32:44.128Z,94720.56
2023-10-20T06:35:54.426Z,94710.88
2023-10-20T06:38:55.891Z,94724.03
2023-10-20T06:41:57.901Z,94720.97
2023-10-20T06:44:59.312Z,94715.97
2023-10-20T06:48:00.839Z,94719.31
2023-10-20T06:51:02.340Z,94717.22
2023-10-20T06:54:03.739Z,94736.25
2023-10-20T06:57:05.365Z,94760.25
2023-10-20T07:00:17.277Z,94772.75
2023-10-20T07:03:18.785Z,94777.72
2023-10-20T07:06:21.843Z,94778.13
2023-10-20T07:09:23.639Z,94785.06
2023-10-20T07:12:25.078Z,94782.50
2023-10-20T07:15:26.723Z,94789.97
2023-10-20T07:18:28.131Z,94796.94
2023-10-20T07:21:29.551Z,94798.75
2023-10-20T07:24:31.334Z,94824.19
2023-10-20T07:27:32.813Z,94834.41
2023-10-20T07:30:35.543Z,94848.41
2023-10-20T07:33:37.188Z,94855.28
2023-10-20T07:36:38.778Z,94870.88
2023-10-20T07:39:40.246Z,94877.75
2023-10-20T07:42:42.190Z,94880.53
2023-10-20T07:45:44.325Z,94910.97
2023-10-20T07:48:46.376Z,94907.97
2023-10-20T07:51:48.496Z,94922.03
2023-10-20T07:54:49.964Z,94941.34
2023-10-20T07:57:51.822Z,94962.66
2023-10-20T08:00:53.328Z,94967.34
2023-10-20T08:03:55.105Z,94988.47
2023-10-20T08:07:00.737Z,94999.00
2023-10-20T08:10:02.331Z,95018.66
2023-10-20T08:13:05.761Z,95009.94
2023-10-20T08:16:10.289Z,95005.59
2023-10-20T08:19:11.825Z,95007.22
2023-10-20T08:22:13.250Z,95023.41
2023-10-20T08:25:14.953Z,95024.44
2023-10-20T08:28:16.348Z,95025.84
2023-10-20T08:31:23.240Z,95032.22
2023-10-20T08:34:24.849Z,95023.22
2023-10-20T08:37:26.229Z,95022.91
2023-10-20T08:40:41.689Z,95022.09
2023-10-20T08:43:52.531Z,95017.72
2023-10-20T08:46:53.963Z,95017.59
2023-10-20T08:49:55.361Z,95033.00
2023-10-20T08:52:56.811Z,95038.69
2023-10-20T08:55:58.212Z,95042.59
2023-10-20T08:58:59.600Z,95050.91
2023-10-20T09:02:01.062Z,95045.53
2023-10-20T09:05:02.498Z,95043.88
2023-10-20T09:08:04.750Z,95065.63
2023-10-20T09:11:09.148Z,95070.88
2023-10-20T09:14:10.731Z,95077.19
2023-10-20T09:17:23.484Z,95085.00
2023-10-20T09:20:25.473Z,95091.81
2023-10-20T09:23:26.909Z,95099.88
2023-10-20T09:26:28.690Z,95089.38
2023-10-20T09:29:31.183Z,95088.81
2023-10-20T09:32:32.667Z,95091.03
2023-10-20T09:35:40.409Z,95114.31
2023-10-20T09:38:44.772Z,95125.81
2023-10-20T09:41:46.617Z,95138.91
2023-10-20T09:44:48.938Z,95153.22
2023-10-20T09:47:53.361Z,95162.63
2023-10-20T09:50:54.963Z,95138.50
2023-10-20T09:53:57.278Z,95153.53
2023-10-20T09:57:00.632Z,95150.13
2023-10-20T10:00:06.170Z,95168.97
2023-10-20T10:03:07.820Z,95168.16
2023-10-20T10:06:10.187Z,95183.06
2023-10-20T10:09:12.087Z,95193.06
2023-10-20T10:12:15.837Z,95214.88
2023-10-20T10:15:17.354Z,95208.72
2023-10-20T10:18:19.894Z,95201.53
2023-10-20T10:21:24.998Z,95232.75
2023-10-20T10:24:26.695Z,95230.75
2023-10-20T10:27:28.899Z,95242.00
2023-10-20T10:30:30.460Z,95235.63
2023-10-20T10:33:33.487Z,95237.88
2023-10-20T10:36:47.450Z,95234.09
2023-10-20T10:39:48.862Z,95223.44
2023-10-20T10:42:50.823Z,95244.03
2023-10-20T10:46:25.230Z,95266.94
2023-10-20T10:49:26.689Z,95272.91
2023-10-20T10:52:28.070Z,95254.38
2023-10-20T10:55:29.750Z,95259.63
2023-10-20T10:58:31.809Z,95243.75
2023-10-20T11:01:33.221Z,95255.97
2023-10-20T11:04:35.193Z,95257.44
2023-10-20T11:07:36.978Z,95260.00
2023-10-20T11:10:39.126Z,95275.78
2023-10-20T11:13:41.501Z,95272.72
2023-10-20T11:16:43.150Z,95269.25
2023-10-20T11:19:45.218Z,95253.16
2023-10-20T11:22:46.838Z,95259.47
2023-10-20T11:25:50.111Z,95271.34
2023-10-20T11:28:51.946Z,95271.22
2023-10-20T11:31:53.353Z,95256.72
2023-10-20T11:34:54.757Z,95274.94
2023-10-20T11:37:56.483Z,95288.41
2023-10-20T11:40:57.894Z,95306.22
2023-10-20T11:43:59.548Z,95309.75
2023-10-20T11:47:00.989Z,95292.28
2023-10-20T11:50:02.512Z,95302.69
2023-10-20T11:53:03.934Z,95309.22
2023-10-20T11:56:06.060Z,95323.53
2023-10-20T11:59:07.923Z,95326.47
2023-10-20T12:02:09.303Z,95308.94
2023-10-20T12:05:11.412Z,95339.63
2023-10-20T12:08:12.878Z,95345.81
2023-10-20T12:11:14.333Z,95347.47
2023-10-20T12:14:16.233Z,95341.84
2023-10-20T12:17:18.013Z,95365.19
2023-10-20T12:20:19.450Z,95368.16
2023-10-20T12:23:20.928Z,95391.56
2023-10-20T12:26:22.539Z,95372.41
2023-10-20T12:29:24.118Z,95360.53
2023-10-20T12:32:25.645Z,95365.69
2023-10-20T12:35:27.105Z,95363.75
2023-10-20T12:38:28.597Z,95386.16
2023-10-20T12:41:30.116Z,95372.88
2023-10-20T12:44:31.650Z,95371.81
2023-10-20T12:47:33.841Z,95367.59
2023-10-20T12:50:37.114Z,95375.03
2023-10-20T12:53:38.589Z,95367.38
2023-10-20T12:56:40.076Z,95371.69
2023-10-20T12:59:41.594Z,95365.72
2023-10-20T13:02:44.761Z,95376.44
2023-10-20T13:05:46.339Z,95377.19
2023-10-20T13:08:47.830Z,95369.19
2023-10-20T13:11:49.288Z,95374.53
2023-10-20T13:14:50.732Z,95366.91
2023-10-20T13:17:52.301Z,95375.53
2023-10-20T13:20:53.764Z,95382.59
2023-10-20T13:23:55.213Z,95385.19
2023-10-20T13:26:56.729Z,95408.91
2023-10-20T13:29:58.250Z,95409.84
2023-10-20T13:33:00.966Z,95421.91
2023-10-20T13:36:05.616Z,95430.28
2023-10-20T13:42:12.937Z,95431.09
2023-10-20T13:45:14.378Z,95433.25
2023-10-20T13:48:15.872Z,95447.72
2023-10-20T13:51:17.448Z,95465.59
2023-10-20T13:54:18.835Z,95466.16
2023-10-20T13:57:20.221Z,95486.72
2023-10-20T14:00:21.683Z,95460.28
2023-10-20T14:03:23.189Z,95429.44
2023-10-20T14:06:25.158Z,95439.41
2023-10-20T14:09:27.257Z,95475.28
2023-10-20T14:12:28.662Z,95479.50
2023-10-20T14:15:30.128Z,95485.81
2023-10-20T14:18:31.622Z,95480.00
2023-10-20T14:21:33.167Z,95474.53
2023-10-20T14:24:35.153Z,95478.00
2023-10-20T14:27:38.073Z,95499.88
2023-10-20T14:30:41.048Z,95493.44
2023-10-20T14:33:42.524Z,95488.44
2023-10-20T14:36:43.936Z,95497.88
2023-10-20T14:39:45.342Z,95503.47
2023-10-20T14:42:46.779Z,95511.09
2023-10-20T14:45:55.385Z,95535.28
2023-10-20T14:48:57.613Z,95534.84
2023-10-20T14:52:01.340Z,95546.06
2023-10-20T14:55:03.934Z,95545.72
2023-10-20T14:58:05.374Z,95542.75
2023-10-20T15:01:07.248Z,95528.69
2023-10-20T15:04:22.202Z,95532.84
2023-10-20T15:07:30.001Z,95531.19
2023-10-20T15:10:31.483Z,95534.50
2023-10-20T15:13:32.899Z,95542.53
2023-10-20T15:16:34.333Z,95549.81
2023-10-20T15:19:37.065Z,95561.59
2023-10-20T15:22:38.702Z,95553.34
2023-10-20T15:25:41.564Z,95549.81
2023-10-20T15:28:43.085Z,95547.84
2023-10-20T15:31:44.659Z,95542.13
2023-10-20T15:34:46.215Z,95558.03
2023-10-20T15:37:47.702Z,95581.19
2023-10-20T15:40:52.412Z,95580.69
2023-10-20T15:43:53.880Z,95593.22
2023-10-20T15:46:55.289Z,95584.22
2023-10-20T15:49:56.696Z,95577.91
2023-10-20T15:52:58.120Z,95586.47
2023-10-20T15:55:59.518Z,95594.47
2023-10-20T15:59:01.006Z,95599.34
2023-10-20T16:02:02.402Z,95601.81
2023-10-20T16:05:03.935Z,95607.50
2023-10-20T16:08:05.449Z,95615.19
2023-10-20T16:11:06.892Z,95616.66
2023-10-20T16:14:09.737Z,95626.59
2023-10-20T16:17:11.256Z,95611.22
2023-10-20T16:20:13.795Z,95622.38
2023-10-20T16:23:15.235Z,95618.50
2023-10-20T16:26:16.656Z,95624.16
2023-10-20T16:29:18.110Z,95639.00
2023-10-20T16:32:19.489Z,95630.41
2023-10-20T16:35:20.948Z,95633.59
2023-10-20T16:38:22.534Z,95627.75
2023-10-20T16:41:23.924Z,95621.84
2023-10-20T16:44:28.245Z,95615.13
2023-10-20T16:47:29.800Z,95618.78
2023-10-20T16:50:31.413Z,95613.22
2023-10-20T16:53:32.973Z,95616.28
2023-10-20T16:56:34.446Z,95611.47
2023-10-20T16:59:36.847Z,95610.41
2023-10-20T17:02:38.721Z,95614.50
2023-10-20T17:05:40.245Z,95608.53
2023-10-20T17:08:41.661Z,95613.00
2023-10-20T17:11:43.171Z,95604.63
2023-10-20T17:14:44.680Z,95605.66
2023-10-20T17:17:46.504Z,95604.16
2023-10-20T17:20:48.237Z,95616.44
2023-10-20T17:23:49.850Z,95614.22
2023-10-20T17:26:51.491Z,95614.28
2023-10-20T17:29:54.710Z,95610.47
2023-10-20T17:32:56.223Z,95613.72
2023-10-20T17:36:16.934Z,95609.72
2023-10-20T17:39:19.531Z,95605.59
2023-10-20T17:42:21.060Z,95594.66
2023-10-20T17:45:27.406Z,95585.75
2023-10-20T17:48:30.107Z,95594.59
2023-10-20T17:51:31.814Z,95587.53
2023-10-20T17:54:33.289Z,95577.28
2023-10-20T17:57:34.670Z,95582.50
2023-10-20T18:00:36.103Z,95578.22
2023-10-20T18:03:41.431Z,95584.69
2023-10-20T18:06:44.320Z,95579.91
2023-10-20T18:09:45.865Z,95578.50
2023-10-20T18:12:47.974Z,95563.91
2023-10-20T18:15:49.368Z,95570.34
2023-10-20T18:18:51.106Z,95563.88
2023-10-20T18:21:52.504Z,95573.41
2023-10-20T18:24:53.901Z,95569.66
2023-10-20T18:27:55.328Z,95559.88
2023-10-20T18:30:56.967Z,95554.19
2023-10-20T18:33:58.876Z,95556.41
2023-10-20T18:37:00.349Z,95552.97
2023-10-20T18:40:01.794Z,95558.19
2023-10-20T18:43:03.382Z,95551.91
2023-10-20T18:46:04.972Z,95540.41
2023-10-20T18:49:06.424Z,95543.44
2023-10-20T18:52:08.505Z,95551.75
2023-10-20T18:55:10.358Z,95544.72
2023-10-20T18:58:11.726Z,95559.25
2023-10-20T19:01:13.278Z,95573.81
2023-10-20T19:04:14.728Z,95573.53
2023-10-20T19:07:16.229Z,95584.38
2023-10-20T19:10:18.130Z,95583.25
2023-10-20T19:13:19.546Z,95579.44
2023-10-20T19:16:20.984Z,95572.13
2023-10-20T19:19:22.433Z,95577.19
2023-10-20T19:22:23.836Z,95567.03
2023-10-20T19:25:25.270Z,95563.59
2023-10-20T19:28:26.855Z,95575.28
2023-10-20T19:31:28.870Z,95557.81
2023-10-20T19:34:30.391Z,95563.59
2023-10-20T19:37:31.858Z,95564.41
2023-10-20T19:40:33.219Z,95573.34
2023-10-20T19:43:34.674Z,95580.19
2023-10-20T19:46:36.174Z,95593.34
2023-10-20T19:49:38.451Z,95593.28
2023-10-20T19:52:40.276Z,95605.13
2023-10-20T19:55:43.898Z,95605.06
2023-10-20T19:58:45.342Z,95622.91
2023-10-20T20:01:46.870Z,95614.34
2023-10-20T20:04:48.341Z,95622.34
2023-10-20T20:07:49.712Z,95612.72
2023-10-20T20:10:51.086Z,95605.88
2023-10-20T20:13:52.476Z,95634.13
2023-10-20T20:16:53.889Z,95656.25
2023-10-20T20:19:56.593Z,95669.88
2023-10-20T20:22:58.009Z,95676.00
2023-10-20T20:25:59.443Z,95676.16
2023-10-20T20:29:01.628Z,95667.75
2023-10-20T20:32:03.103Z,95671.47
2023-10-20T20:35:05.330Z,95668.94
2023-10-20T20:38:06.727Z,95669.56
2023-10-20T20:41:08.139Z,95654.31
2023-10-20T20:44:09.512Z,95647.47
2023-10-20T20:47:11.576Z,95646.03
2023-10-20T20:50:22.368Z,95643.09
2023-10-20T20:53:30.735Z,95630.81
2023-10-20T20:56:32.286Z,95646.72
2023-10-20T20:59:33.875Z,95642.50
2023-10-20T21:02:36.174Z,95639.50
2023-10-20T21:05:37.756Z,95641.22
2023-10-20T21:08:39.295Z,95637.09
2023-10-20T21:11:40.753Z,95649.78
2023-10-20T21:14:42.225Z,95649.16
2023-10-20T21:17:44.538Z,95642.75
2023-10-20T21:20:46.054Z,95626.03
2023-10-20T21:23:47.502Z,95622.38
2023-10-20T21:26:49.636Z,95639.66
2023-10-20T21:29:51.071Z,95647.41
2023-10-20T21:32:52.548Z,95668.09
2023-10-20T21:35:54.538Z,95664.03
2023-10-20T21:38:56.348Z,95659.63
2023-10-20T21:41:57.933Z,95668.94
2023-10-20T21:44:59.412Z,95663.38
2023-10-20T21:48:04.045Z,95665.47
2023-10-20T21:51:11.145Z,95657.06
2023-10-20T21:54:12.789Z,95673.78
2023-10-20T21:57:14.316Z,95733.13
2023-10-20T22:00:23.790Z,95753.66
2023-10-20T22:03:25.854Z,95768.50
2023-10-20T22:06:27.437Z,95822.56
2023-10-20T22:09:38.045Z,95824.03
2023-10-20T22:12:52.498Z,95834.91
2023-10-20T22:15:54.449Z,95847.00
2023-10-20T22:18:55.901Z,95863.06
2023-10-20T22:21:57.506Z,95866.13
2023-10-20T22:24:58.963Z,95863.59
2023-10-20T22:28:00.505Z,95885.94
2023-10-20T22:31:01.916Z,95854.03
2023-10-20T22:34:03.295Z,95855.03
2023-10-20T22:37:04.688Z,95870.25
2023-10-20T22:40:07.098Z,95848.53
2023-10-20T22:43:08.505Z,95848.34
2023-10-20T22:46:09.984Z,95848.34
2023-10-20T22:49:11.424Z,95875.16
2023-10-20T22:52:12.817Z,95876.75
2023-10-20T22:55:14.254Z,95867.19
2023-10-20T22:58:15.633Z,95885.97
2023-10-20T23:01:17.034Z,95909.63
2023-10-20T23:04:21.415Z,95923.13
2023-10-20T23:07:23.925Z,95923.13
2023-10-20T23:10:25.328Z,95933.75
2023-10-20T23:13:26.757Z,95966.28
2023-10-20T23:16:28.280Z,95969.81
2023-10-20T23:19:29.745Z,95983.88
2023-10-20T23:22:31.811Z,95997.75
2023-10-20T23:25:34.541Z,96002.88
2023-10-20T23:28:35.934Z,96009.22
2023-10-20T23:31:37.391Z,96015.22
2023-10-20T23:34:38.852Z,96015.41
2023-10-20T23:37:40.206Z,96016.16
2023-10-20T23:40:41.607Z,96022.00
2023-10-20T23:43:43.268Z,96027.81
2023-10-20T23:46:44.705Z,96023.00
2023-10-20T23:49:46.165Z,96026.03
2023-10-20T23:52:47.799Z,96038.41
2023-10-20T23:55:49.279Z,96049.22
2023-10-20T23:58:50.690Z,96055.50
